Central Heights, Iowa
Current Conditions -  °F | °C
As of 1:53 PM on Thursday 29 Jan 2015 (Local Time) from KMCW Reporting Station
Broken Clouds Broken Clouds  
Wind Chill: 19°   Ceiling: 2000
Heat Index: 33°   Visibility: 10mi
Dew Point: 24°   Wind: 29mph
Humidity: 70%   Direction: 320°NW
Pressure: 30.26"   Gusts: 38mph
Location:  43.1451°N, 93.1385°W
Report Text: KMCW 291953Z AUTO 32025G33KT 10SM BKN020 BKN024 01/M04 A3026 RMK AO2 PK WND 32033/1947 SLP254 T00061044
Loading
Personal Weather Stations






























Interactive Weather Map New forecast layout! Learn more

10-Day Weather Forecast

Advertisements
Track Severe Weather on mobile